createdAt,value
2022-08-05T00:00:08.397Z,19.4
2022-08-05T00:01:48.435Z,19.4
2022-08-05T00:02:16.142Z,19.4
2022-08-05T00:03:19.929Z,19.5
2022-08-05T00:04:18.485Z,19.5
2022-08-05T00:06:29.418Z,19.5
2022-08-05T00:06:37.931Z,19.5
2022-08-05T00:08:03.995Z,19.5
2022-08-05T00:08:38.950Z,19.5
2022-08-05T00:09:21.776Z,19.4
2022-08-05T00:10:14.324Z,19.5
2022-08-05T00:11:55.557Z,19.5
2022-08-05T00:12:18.906Z,19.5
2022-08-05T00:13:40.494Z,19.6
2022-08-05T00:14:21.156Z,19.6
2022-08-05T00:16:02.526Z,19.5
2022-08-05T00:16:56.164Z,19.5
2022-08-05T00:17:23.553Z,19.4
2022-08-05T00:18:26.636Z,19.4
2022-08-05T00:19:14.688Z,19.5
2022-08-05T00:20:22.510Z,19.5
2022-08-05T00:21:16.293Z,19.5
2022-08-05T00:22:19.941Z,19.4
2022-08-05T00:23:17.725Z,19.4
2022-08-05T00:24:30.852Z,19.4
2022-08-05T00:25:18.417Z,19.4
2022-08-05T00:26:18.402Z,19.4
2022-08-05T00:27:21.148Z,19.3
2022-08-05T00:28:29.412Z,19.3
2022-08-05T00:29:16.234Z,19.3
2022-08-05T00:30:15.805Z,19.1
2022-08-05T00:31:15.055Z,19.1
2022-08-05T00:32:19.446Z,19.1
2022-08-05T00:35:09.644Z,19.1
2022-08-05T00:35:09.789Z,19.1
2022-08-05T00:37:13.935Z,19
2022-08-05T00:37:18.326Z,19
2022-08-05T00:38:33.850Z,19
2022-08-05T00:39:18.373Z,18.9
2022-08-05T00:40:26.541Z,18.9
2022-08-05T00:41:16.833Z,18.9
2022-08-05T00:42:36.615Z,18.9
2022-08-05T00:43:19.415Z,18.9
2022-08-05T00:44:16.334Z,19
2022-08-05T00:45:17.843Z,19
2022-08-05T00:46:16.628Z,19.1
2022-08-05T00:47:18.516Z,19
2022-08-05T00:48:17.039Z,19.1
2022-08-05T00:49:19.188Z,19.1
2022-08-05T00:50:15.625Z,19.1
2022-08-05T00:51:57.090Z,19.1
2022-08-05T00:52:14.030Z,19.1
2022-08-05T00:54:04.575Z,19.1
2022-08-05T00:54:19.291Z,19.2
2022-08-05T00:55:17.077Z,19.1
2022-08-05T00:56:22.649Z,19.1
2022-08-05T00:57:12.782Z,19.1
2022-08-05T00:58:17.700Z,19.1
2022-08-05T00:59:14.174Z,19.1
2022-08-05T01:00:19.890Z,19.1
2022-08-05T01:01:24.862Z,19.1
2022-08-05T01:02:13.468Z,19.1
2022-08-05T01:03:35.499Z,19.1
2022-08-05T01:04:26.670Z,19.1
2022-08-05T01:05:18.869Z,19.1
2022-08-05T01:06:20.797Z,19.1
2022-08-05T01:07:22.286Z,19.1
2022-08-05T01:08:49.346Z,19.1
2022-08-05T01:09:21.919Z,19.1
2022-08-05T01:10:14.217Z,19
2022-08-05T01:11:37.127Z,19
2022-08-05T01:12:22.856Z,18.9
2022-08-05T01:13:58.193Z,18.9
2022-08-05T01:14:17.545Z,18.8
2022-08-05T01:15:49.935Z,18.8
2022-08-05T01:16:26.381Z,18.8
2022-08-05T01:17:18.039Z,18.8
2022-08-05T01:18:19.828Z,18.6
2022-08-05T01:19:18.514Z,18.6
2022-08-05T01:20:12.962Z,18.6
2022-08-05T01:21:25.025Z,18.7
2022-08-05T01:22:27.884Z,18.7
2022-08-05T01:23:25.575Z,18.7
2022-08-05T01:24:18.605Z,18.7
2022-08-05T01:25:17.775Z,18.7
2022-08-05T01:26:14.139Z,18.7
2022-08-05T01:27:35.193Z,18.8
2022-08-05T01:28:16.686Z,18.8
2022-08-05T01:29:27.805Z,18.8
2022-08-05T01:30:36.605Z,18.8
2022-08-05T01:31:15.681Z,18.8
2022-08-05T01:32:22.801Z,18.8
2022-08-05T01:33:21.718Z,18.8
2022-08-05T01:34:16.130Z,18.7
2022-08-05T01:35:53.253Z,18.7
2022-08-05T01:36:18.331Z,18.6
2022-08-05T01:37:29.236Z,18.6
2022-08-05T01:38:30.245Z,18.6
2022-08-05T01:39:48.479Z,18.6
2022-08-05T01:40:12.635Z,18.6
2022-08-05T01:41:27.911Z,18.6
2022-08-05T01:42:15.820Z,18.6
2022-08-05T01:43:26.391Z,18.5
2022-08-05T01:44:20.767Z,18.5
2022-08-05T01:45:18.436Z,18.4
2022-08-05T01:46:48.687Z,18.4
2022-08-05T01:47:18.239Z,18.4
2022-08-05T01:48:16.432Z,18.4
2022-08-05T01:50:02.958Z,18.4
2022-08-05T01:50:20.006Z,18.4
2022-08-05T01:51:16.545Z,18.4
2022-08-05T01:52:22.362Z,18.6
2022-08-05T01:53:58.194Z,18.6
2022-08-05T01:54:27.644Z,18.6
2022-08-05T01:55:13.672Z,18.4
2022-08-05T01:58:16.884Z,18.4
2022-08-05T01:58:18.260Z,18.5
2022-08-05T01:59:13.436Z,18.5
2022-08-05T02:00:16.794Z,18.5
2022-08-05T02:02:17.951Z,18.4
2022-08-05T02:03:36.017Z,18.4
2022-08-05T02:04:14.573Z,18.4
2022-08-05T02:05:17.561Z,18.5
2022-08-05T02:06:41.913Z,18.4
2022-08-05T02:07:26.148Z,18.5
2022-08-05T02:08:33.928Z,18.4
2022-08-05T02:09:24.949Z,18.4
2022-08-05T02:10:19.273Z,18.4
2022-08-05T02:11:33.031Z,18.4
2022-08-05T02:12:15.398Z,18.4
2022-08-05T02:13:20.526Z,18.4
2022-08-05T02:14:19.058Z,18.4
2022-08-05T02:15:21.839Z,18.4
2022-08-05T02:16:24.286Z,18.4
2022-08-05T02:17:16.904Z,18.3
2022-08-05T02:18:44.055Z,18.3
2022-08-05T02:19:15.370Z,18.3
2022-08-05T02:20:22.776Z,18.2
2022-08-05T02:21:19.492Z,18.1
2022-08-05T02:22:29.602Z,18.1
2022-08-05T02:23:16.958Z,18.1
2022-08-05T02:24:25.544Z,18.2
2022-08-05T02:25:16.912Z,18.3
2022-08-05T02:26:23.867Z,18.3
2022-08-05T02:27:18.266Z,18.3
2022-08-05T02:28:13.334Z,18.3
2022-08-05T02:30:00.818Z,18.3
2022-08-05T02:30:15.878Z,18.3
2022-08-05T02:31:23.144Z,18.2
2022-08-05T02:32:33.430Z,18.2
2022-08-05T02:33:40.313Z,18.1
2022-08-05T02:34:14.313Z,18.1
2022-08-05T02:35:33.122Z,18.1
2022-08-05T02:36:19.684Z,18
2022-08-05T02:37:13.265Z,18
2022-08-05T02:38:32.518Z,18.1
2022-08-05T02:39:23.527Z,18
2022-08-05T02:40:17.175Z,17.9
2022-08-05T02:41:28.546Z,17.9
2022-08-05T02:42:36.444Z,17.8
2022-08-05T02:43:19.470Z,17.8
2022-08-05T02:44:18.521Z,17.8
2022-08-05T02:45:15.351Z,17.8
2022-08-05T02:46:29.513Z,17.8
2022-08-05T02:47:08.357Z,17.8
2022-08-05T02:48:18.503Z,17.8
2022-08-05T02:49:15.568Z,17.9
2022-08-05T02:50:20.071Z,18.1
2022-08-05T02:51:16.006Z,18.1
2022-08-05T02:52:32.555Z,18.1
2022-08-05T02:53:20.686Z,18.1
2022-08-05T02:54:50.846Z,17.8
2022-08-05T02:55:59.781Z,17.8
2022-08-05T02:56:21.032Z,17.8
2022-08-05T02:58:17.487Z,17.7
2022-08-05T02:58:28.826Z,17.7
2022-08-05T02:59:13.078Z,17.7
2022-08-05T03:00:13.191Z,17.7
2022-08-05T03:01:07.476Z,17.7
2022-08-05T03:02:09.049Z,17.7
2022-08-05T03:03:18.767Z,17.7
2022-08-05T03:04:18.729Z,17.7
2022-08-05T03:05:17.873Z,17.7
2022-08-05T03:07:02.431Z,17.7
2022-08-05T03:08:10.976Z,17.7
2022-08-05T03:08:19.578Z,17.7
2022-08-05T03:09:43.420Z,17.6
2022-08-05T03:10:15.455Z,17.6
2022-08-05T03:12:00.447Z,17.8
2022-08-05T03:12:14.298Z,17.8
2022-08-05T03:13:51.340Z,17.8
2022-08-05T03:14:17.526Z,17.8
2022-08-05T03:15:20.569Z,17.7
2022-08-05T03:16:21.689Z,17.7
2022-08-05T03:17:13.183Z,17.6
2022-08-05T03:18:32.294Z,17.6
2022-08-05T03:19:36.220Z,17.6
2022-08-05T03:20:21.182Z,17.4
2022-08-05T03:21:19.239Z,17.4
2022-08-05T03:22:34.710Z,17.4
2022-08-05T03:23:14.808Z,17.4
2022-08-05T03:24:17.534Z,17.5
2022-08-05T03:26:33.055Z,17.6
2022-08-05T03:26:36.262Z,17.6
2022-08-05T03:27:14.108Z,17.6
2022-08-05T03:28:07.150Z,17.6
2022-08-05T03:29:22.781Z,17.6
2022-08-05T03:30:17.384Z,17.6
2022-08-05T03:32:00.627Z,17.6
2022-08-05T03:32:21.427Z,17.5
2022-08-05T03:33:17.030Z,17.5
2022-08-05T03:34:17.030Z,17.5
2022-08-05T03:35:17.474Z,17.4
2022-08-05T03:36:17.100Z,17.4
2022-08-05T03:37:18.603Z,17.3
2022-08-05T03:38:32.978Z,17.3
2022-08-05T03:39:47.299Z,17.3
2022-08-05T03:40:24.535Z,17.3
2022-08-05T03:41:15.178Z,17.4
2022-08-05T03:42:18.100Z,17.3
2022-08-05T03:44:19.767Z,17.3
2022-08-05T03:44:22.190Z,17.3
2022-08-05T03:46:00.142Z,17.4
2022-08-05T03:46:08.193Z,17.4
2022-08-05T03:47:17.871Z,17.4
2022-08-05T03:48:24.017Z,17.4
2022-08-05T03:49:19.094Z,17.4
2022-08-05T03:50:14.212Z,17.4
2022-08-05T03:56:01.309Z,17.4
2022-08-05T03:56:18.128Z,17.4
2022-08-05T03:56:18.162Z,17.4
2022-08-05T03:56:33.191Z,17.2
2022-08-05T03:57:46.831Z,17.2
2022-08-05T03:58:14.114Z,17.2
2022-08-05T03:59:13.169Z,17.2
2022-08-05T04:00:21.590Z,17.2
2022-08-05T04:01:17.212Z,17.2
2022-08-05T04:02:45.296Z,17.1
2022-08-05T04:03:31.501Z,17.1
2022-08-05T04:04:21.160Z,17.1
2022-08-05T04:05:17.849Z,17.1
2022-08-05T04:06:17.236Z,17.1
2022-08-05T04:07:17.691Z,17.1
2022-08-05T04:08:39.898Z,17.2
2022-08-05T04:09:28.733Z,17.2
2022-08-05T04:10:19.568Z,17.2
2022-08-05T04:11:14.419Z,17.1
2022-08-05T04:12:27.999Z,17.4
2022-08-05T04:13:14.241Z,17.4
2022-08-05T04:14:31.636Z,17.4
2022-08-05T04:15:19.605Z,17.5
2022-08-05T04:16:32.390Z,17.5
2022-08-05T04:17:16.261Z,17.6
2022-08-05T04:18:25.443Z,17.6
2022-08-05T04:19:19.601Z,17.6
2022-08-05T04:20:18.841Z,17.5
2022-08-05T04:22:11.911Z,17.4
2022-08-05T04:22:22.503Z,17.4
2022-08-05T04:24:08.972Z,17.4
2022-08-05T04:24:24.877Z,17.4
2022-08-05T04:25:58.130Z,17.4
2022-08-05T04:26:09.178Z,17.4
2022-08-05T04:27:56.774Z,17.4
2022-08-05T04:28:19.175Z,17.4
2022-08-05T04:29:16.392Z,17.4
2022-08-05T04:30:11.241Z,17.4
2022-08-05T04:31:20.731Z,17.4
2022-08-05T04:32:13.096Z,17.5
2022-08-05T04:33:14.201Z,17.5
2022-08-05T04:34:44.749Z,17.5
2022-08-05T04:35:25.314Z,17.5
2022-08-05T04:36:52.491Z,17.5
2022-08-05T04:37:07.466Z,17.5
2022-08-05T04:38:19.817Z,17.5
2022-08-05T04:39:23.777Z,17.5
2022-08-05T04:40:23.675Z,17.6
2022-08-05T04:41:17.788Z,17.6
2022-08-05T04:42:17.820Z,17.6
2022-08-05T04:43:24.072Z,17.6
2022-08-05T04:44:14.182Z,17.6
2022-08-05T04:45:48.715Z,17.6
2022-08-05T04:46:15.154Z,17.7
2022-08-05T04:47:19.116Z,17.8
2022-08-05T04:48:31.045Z,17.8
2022-08-05T04:49:38.212Z,17.9
2022-08-05T04:50:37.713Z,17.9
2022-08-05T04:51:15.850Z,17.9
2022-08-05T04:52:22.913Z,18
2022-08-05T04:53:13.164Z,18
2022-08-05T04:54:07.897Z,18
2022-08-05T04:56:15.614Z,18.1
2022-08-05T04:56:39.602Z,18.1
2022-08-05T04:57:13.226Z,18.1
2022-08-05T04:58:22.879Z,18.1
2022-08-05T04:59:43.292Z,18.2
2022-08-05T05:00:18.895Z,18.2
2022-08-05T05:01:15.850Z,18.3
2022-08-05T05:02:45.306Z,18.3
2022-08-05T05:03:20.875Z,18.3
2022-08-05T05:04:18.382Z,18.4
2022-08-05T05:05:31.507Z,18.4
2022-08-05T05:06:57.505Z,18.4
2022-08-05T05:07:35.275Z,18.6
2022-08-05T05:08:32.622Z,18.6
2022-08-05T05:09:24.072Z,18.6
2022-08-05T05:10:15.613Z,18.8
2022-08-05T05:11:19.496Z,18.8
2022-08-05T05:12:17.000Z,18.8
2022-08-05T05:13:17.528Z,18.8
2022-08-05T05:14:36.187Z,18.9
2022-08-05T05:15:12.650Z,18.9
2022-08-05T05:16:32.415Z,18.9
2022-08-05T05:17:14.782Z,19.2
2022-08-05T05:18:28.621Z,19.2
2022-08-05T05:19:36.642Z,19.4
2022-08-05T05:20:12.834Z,19.4
2022-08-05T05:21:16.092Z,19.4
2022-08-05T05:22:28.667Z,19.5
2022-08-05T05:23:24.200Z,19.5
2022-08-05T05:24:13.238Z,19.6
2022-08-05T05:25:21.449Z,19.6
2022-08-05T05:26:17.347Z,19.6
2022-08-05T05:27:23.322Z,19.7
2022-08-05T05:28:13.490Z,19.7
2022-08-05T05:29:21.269Z,19.8
2022-08-05T05:30:29.934Z,19.8
2022-08-05T05:31:20.589Z,19.9
2022-08-05T05:32:23.227Z,20
2022-08-05T05:33:25.451Z,20.1
2022-08-05T05:34:28.737Z,20.1
2022-08-05T05:35:23.990Z,20.1
2022-08-05T05:36:06.050Z,20.3
2022-08-05T05:37:17.854Z,20.4
2022-08-05T05:38:29.376Z,20.6
2022-08-05T05:39:25.880Z,20.6
2022-08-05T05:40:14.400Z,20.6
2022-08-05T05:41:22.602Z,20.7
2022-08-05T05:42:22.838Z,20.7
2022-08-05T05:43:16.040Z,20.8
2022-08-05T05:44:48.025Z,20.8
2022-08-05T05:45:18.364Z,21
2022-08-05T05:46:23.946Z,21
2022-08-05T05:48:05.815Z,21.3
2022-08-05T05:48:18.231Z,21.4
2022-08-05T05:49:27.041Z,21.5
2022-08-05T05:50:21.919Z,21.6
2022-08-05T05:51:19.725Z,21.7
2022-08-05T05:52:38.092Z,21.8
2022-08-05T05:53:29.311Z,21.8
2022-08-05T05:54:19.660Z,21.8
2022-08-05T05:55:15.593Z,21.8
2022-08-05T05:56:32.030Z,21.8
2022-08-05T05:57:21.471Z,21.8
2022-08-05T05:58:13.332Z,21.8
2022-08-05T05:59:24.770Z,22.3
2022-08-05T06:00:12.199Z,22.3
2022-08-05T06:01:17.610Z,22.3
2022-08-05T06:02:14.560Z,22.3
2022-08-05T06:04:05.814Z,22.3
2022-08-05T06:04:18.827Z,22.4
2022-08-05T06:05:22.543Z,22.4
2022-08-05T06:06:13.214Z,22.4
2022-08-05T06:07:24.742Z,22.6
2022-08-05T06:08:33.875Z,22.6
2022-08-05T06:10:10.108Z,22.7
2022-08-05T06:10:14.631Z,22.7
2022-08-05T06:11:18.614Z,22.8
2022-08-05T06:12:17.668Z,22.8
2022-08-05T06:13:16.243Z,22.8
2022-08-05T06:14:13.020Z,22.9
2022-08-05T06:15:25.838Z,23
2022-08-05T06:16:39.340Z,23.1
2022-08-05T06:17:57.256Z,23.1
2022-08-05T06:18:14.183Z,23.1
2022-08-05T06:19:37.853Z,23.2
2022-08-05T06:20:25.667Z,23.3
2022-08-05T06:21:22.689Z,23.3
2022-08-05T06:22:20.228Z,23.3
2022-08-05T06:23:12.310Z,23.3
2022-08-05T06:24:27.918Z,23.4
2022-08-05T06:26:23.877Z,23.4
2022-08-05T06:26:27.187Z,23.6
2022-08-05T06:28:24.024Z,23.6
2022-08-05T06:28:30.512Z,23.6
2022-08-05T06:30:16.906Z,23.8
2022-08-05T06:30:29.360Z,23.8
2022-08-05T06:31:30.657Z,24
2022-08-05T06:32:31.286Z,24.1
2022-08-05T06:34:06.640Z,24.1
2022-08-05T06:34:20.004Z,24.5
2022-08-05T06:36:11.956Z,24.5
2022-08-05T06:36:27.888Z,24.5
2022-08-05T06:37:14.470Z,24.4
2022-08-05T06:38:18.127Z,24.4
2022-08-05T06:39:17.024Z,24.7
2022-08-05T06:40:17.825Z,24.9
2022-08-05T06:41:16.221Z,24.9
2022-08-05T06:42:17.617Z,25.4
2022-08-05T06:44:04.817Z,26.4
2022-08-05T06:44:14.045Z,26.3
2022-08-05T06:46:09.048Z,26.3
2022-08-05T06:46:13.054Z,26.3
2022-08-05T06:49:01.623Z,26.3
2022-08-05T06:49:04.197Z,26.3
2022-08-05T06:50:21.607Z,26
2022-08-05T06:51:29.683Z,26.3
2022-08-05T06:52:42.741Z,26.3
2022-08-05T06:53:30.747Z,26.2
2022-08-05T06:54:28.031Z,26.2
2022-08-05T06:55:18.916Z,26.2
2022-08-05T06:56:33.313Z,26.2
2022-08-05T06:58:35.194Z,26.1
2022-08-05T06:58:39.371Z,26.1
2022-08-05T06:59:14.090Z,26.1
2022-08-05T07:00:14.575Z,25.9
2022-08-05T07:01:23.065Z,25.9
2022-08-05T07:02:27.002Z,25.5
2022-08-05T07:03:18.664Z,25.3
2022-08-05T07:04:15.947Z,25.3
2022-08-05T07:05:27.745Z,25.3
2022-08-05T07:06:22.695Z,25.3
2022-08-05T07:07:43.394Z,25.3
2022-08-05T07:08:17.308Z,25.4
2022-08-05T07:09:18.112Z,25.4
2022-08-05T07:10:23.510Z,25.8
2022-08-05T07:11:25.311Z,25.8
2022-08-05T07:12:17.651Z,25.8
2022-08-05T07:13:57.302Z,25.8
2022-08-05T07:14:36.404Z,26.1
2022-08-05T07:16:01.333Z,26.1
2022-08-05T07:18:12.629Z,26
2022-08-05T07:18:13.572Z,26.1
2022-08-05T07:19:26.303Z,26
2022-08-05T07:20:47.393Z,26.3
2022-08-05T07:21:13.630Z,26.3
2022-08-05T07:22:21.145Z,26.5
2022-08-05T07:23:31.805Z,26.6
2022-08-05T07:24:15.509Z,26.6
2022-08-05T07:25:59.227Z,26.7
2022-08-05T07:26:24.991Z,26.7
2022-08-05T07:27:16.583Z,26.7
2022-08-05T07:28:21.543Z,26.8
2022-08-05T07:29:14.475Z,26.9
2022-08-05T07:30:38.222Z,27
2022-08-05T07:31:17.709Z,27
2022-08-05T07:32:16.688Z,27.1
2022-08-05T07:33:21.258Z,27.2
2022-08-05T07:34:30.660Z,27.2
2022-08-05T07:36:24.016Z,27.1
2022-08-05T07:36:25.843Z,27.2
2022-08-05T07:37:17.013Z,27.3
2022-08-05T07:38:45.192Z,27.4
2022-08-05T07:40:34.583Z,27.4
2022-08-05T07:40:37.430Z,27.5
2022-08-05T07:42:18.433Z,27.8
2022-08-05T07:42:36.322Z,27.8
2022-08-05T07:43:25.774Z,27.8
2022-08-05T07:44:23.727Z,27.8
2022-08-05T07:45:31.244Z,27.9
2022-08-05T07:46:29.485Z,27.9
2022-08-05T07:47:18.944Z,27.9
2022-08-05T07:49:06.310Z,27.8
2022-08-05T07:49:16.359Z,27.8
2022-08-05T07:50:22.638Z,27.9
2022-08-05T07:51:56.075Z,27.9
2022-08-05T07:52:15.206Z,28.1
2022-08-05T07:53:17.504Z,28.3
2022-08-05T07:54:14.843Z,28.3
2022-08-05T07:57:17.914Z,28.3
2022-08-05T07:57:55.213Z,28.3
2022-08-05T07:58:05.309Z,28.3
2022-08-05T07:58:17.568Z,28.4
2022-08-05T07:59:14.352Z,28.6
2022-08-05T08:00:16.632Z,28.6
2022-08-05T08:01:17.700Z,28.6
2022-08-05T08:02:30.590Z,28.8
2022-08-05T08:03:23.624Z,28.8
2022-08-05T08:04:17.796Z,28.9
2022-08-05T08:05:15.658Z,28.9
2022-08-05T08:06:16.638Z,29
2022-08-05T08:07:17.792Z,29
2022-08-05T08:08:19.734Z,29.1
2022-08-05T08:09:21.821Z,29.1
2022-08-05T08:10:24.665Z,29.1
2022-08-05T08:11:47.129Z,29.1
2022-08-05T08:12:48.966Z,29.3
2022-08-05T08:13:13.631Z,29.3
2022-08-05T08:14:20.398Z,29.3
2022-08-05T08:16:34.205Z,29.3
2022-08-05T08:16:55.773Z,29.4
2022-08-05T08:17:23.606Z,29.6
2022-08-05T08:18:25.426Z,29.4
2022-08-05T08:21:09.502Z,29.5
2022-08-05T08:21:09.514Z,29.5
2022-08-05T08:22:20.004Z,29.4
2022-08-05T08:24:14.004Z,29.5
2022-08-05T08:24:18.420Z,29.6
2022-08-05T08:25:59.530Z,29.6
2022-08-05T08:26:16.050Z,29.5
2022-08-05T08:27:11.542Z,29.5
2022-08-05T08:29:02.503Z,29.5
2022-08-05T08:30:37.961Z,29.5
2022-08-05T08:30:49.997Z,29.5
2022-08-05T08:31:23.922Z,29.5
2022-08-05T08:32:21.503Z,29.7
2022-08-05T08:33:19.080Z,29.7
2022-08-05T08:34:30.075Z,29.8
2022-08-05T08:35:17.869Z,29.8
2022-08-05T08:36:56.705Z,29.8
2022-08-05T08:37:29.811Z,29.8
2022-08-05T08:38:18.553Z,29.8
2022-08-05T08:39:21.567Z,29.8
2022-08-05T08:40:14.838Z,29.8
2022-08-05T08:41:19.996Z,29.8
2022-08-05T08:42:53.072Z,29.8
2022-08-05T08:45:29.387Z,29.6
2022-08-05T08:45:31.986Z,29.8
2022-08-05T08:45:32.494Z,29.6
2022-08-05T08:46:22.546Z,29.8
2022-08-05T08:48:43.762Z,29.6
2022-08-05T08:50:29.780Z,29.4
2022-08-05T08:51:22.669Z,29.4
2022-08-05T08:52:02.662Z,29.4
2022-08-05T08:52:15.531Z,29.4
2022-08-05T08:53:16.962Z,29.7
2022-08-05T08:54:17.907Z,29.8
2022-08-05T08:56:03.226Z,29.8
2022-08-05T08:56:18.169Z,29.7
2022-08-05T08:57:13.425Z,29.7
2022-08-05T08:58:17.311Z,29.8
2022-08-05T08:59:23.526Z,29.8
2022-08-05T09:00:21.593Z,30
2022-08-05T09:01:21.909Z,30
2022-08-05T09:02:20.869Z,30.1
2022-08-05T09:03:23.321Z,30.1
2022-08-05T09:04:16.101Z,30.1
2022-08-05T09:06:11.022Z,30.4
2022-08-05T09:06:31.518Z,30.4
2022-08-05T09:07:39.602Z,30.5
2022-08-05T09:08:20.486Z,30.4
2022-08-05T09:09:18.415Z,30.3
2022-08-05T09:10:15.720Z,30.5
2022-08-05T09:11:18.880Z,30.5
2022-08-05T09:12:29.457Z,30.6
2022-08-05T09:13:17.934Z,30.6
2022-08-05T09:15:08.603Z,30.3
2022-08-05T09:15:22.357Z,30.3
2022-08-05T09:16:21.586Z,30.4
2022-08-05T09:17:49.373Z,30.4
2022-08-05T09:18:19.176Z,30.5
2022-08-05T09:19:16.764Z,30.5
2022-08-05T09:20:39.552Z,30.5
2022-08-05T09:22:31.428Z,30
2022-08-05T09:22:35.643Z,30.3
2022-08-05T09:23:27.154Z,30.5
2022-08-05T09:24:14.613Z,30.6
2022-08-05T09:26:06.382Z,30.9
2022-08-05T09:26:25.052Z,30.8
2022-08-05T09:28:07.721Z,30.8
2022-08-05T09:28:31.742Z,30.8
2022-08-05T09:29:21.161Z,30.9
2022-08-05T09:30:25.609Z,30.9
2022-08-05T09:32:48.900Z,30.8
2022-08-05T09:32:51.438Z,30.9
2022-08-05T09:34:17.901Z,30.8
2022-08-05T09:35:31.503Z,30.9
2022-08-05T09:36:21.579Z,31.1
2022-08-05T09:38:27.297Z,31.1
2022-08-05T09:38:31.723Z,31.1
2022-08-05T09:39:45.944Z,31.3
2022-08-05T09:40:13.411Z,31.4
2022-08-05T09:41:21.261Z,31.4
2022-08-05T09:42:30.203Z,31.4
2022-08-05T09:43:15.660Z,31.4
2022-08-05T09:44:16.213Z,31.4
2022-08-05T09:46:11.824Z,31.3
2022-08-05T09:46:17.663Z,31.2
2022-08-05T09:47:22.568Z,31.2
2022-08-05T09:48:13.069Z,31
2022-08-05T09:49:54.968Z,31.1
2022-08-05T09:50:38.390Z,31.1
2022-08-05T09:51:19.239Z,31.2
2022-08-05T09:52:15.629Z,31.2
2022-08-05T09:53:59.080Z,31.2
2022-08-05T09:54:09.280Z,31.2
2022-08-05T09:56:12.786Z,31
2022-08-05T09:56:23.163Z,31.2
2022-08-05T09:57:27.743Z,31.4
2022-08-05T09:58:18.978Z,31.4
2022-08-05T09:59:22.211Z,31.7
2022-08-05T10:00:15.981Z,31.8
2022-08-05T10:01:39.667Z,31.8
2022-08-05T10:02:14.816Z,31.9
2022-08-05T10:03:16.640Z,31.8
2022-08-05T10:04:19.419Z,31.8
2022-08-05T10:05:15.858Z,31.4
2022-08-05T10:06:22.016Z,31.6
2022-08-05T10:08:38.115Z,31.7
2022-08-05T10:08:50.466Z,31.7
2022-08-05T10:09:45.207Z,32
2022-08-05T10:10:32.355Z,32.1
2022-08-05T10:11:17.934Z,32.1
2022-08-05T10:12:36.097Z,32.1
2022-08-05T10:13:16.700Z,32.1
2022-08-05T10:14:19.275Z,31.9
2022-08-05T10:15:20.502Z,32.1
2022-08-05T10:16:16.592Z,32.4
2022-08-05T10:17:54.665Z,32.4
2022-08-05T10:18:19.003Z,32.3
2022-08-05T10:19:14.099Z,32.3
2022-08-05T10:20:22.365Z,32.2
2022-08-05T10:21:24.979Z,32.3
2022-08-05T10:22:40.105Z,32.3
2022-08-05T10:24:04.126Z,32.3
2022-08-05T10:24:15.965Z,32.3
2022-08-05T10:25:18.804Z,32.2
2022-08-05T10:26:18.309Z,32.4
2022-08-05T10:27:38.811Z,32.6
2022-08-05T10:28:31.767Z,32.6
2022-08-05T10:32:50.028Z,32.5
2022-08-05T10:33:04.541Z,32.5
2022-08-05T10:33:05.194Z,32.6
2022-08-05T10:34:30.011Z,32.4
2022-08-05T10:35:15.000Z,32.4
2022-08-05T10:36:17.757Z,32.4
2022-08-05T10:37:17.778Z,32.7
2022-08-05T10:38:17.777Z,32.7
2022-08-05T10:40:19.993Z,32.7
2022-08-05T10:40:27.883Z,32.7
2022-08-05T10:41:25.619Z,32.7
2022-08-05T10:42:15.559Z,32.7
2022-08-05T10:43:16.627Z,32.7
2022-08-05T10:44:11.757Z,32.6
2022-08-05T10:45:43.821Z,32.2
2022-08-05T10:46:15.045Z,32.2
2022-08-05T10:47:33.455Z,32.6
2022-08-05T10:49:01.621Z,32.6
2022-08-05T10:49:32.912Z,32.4
2022-08-05T10:50:44.040Z,32.4
2022-08-05T10:51:31.606Z,32.8
2022-08-05T10:52:19.090Z,32.6
2022-08-05T10:53:19.640Z,32.3
2022-08-05T10:54:37.750Z,32.3
2022-08-05T10:55:20.636Z,32.3
2022-08-05T10:56:29.315Z,32.3
2022-08-05T10:57:19.893Z,32.1
2022-08-05T10:58:20.090Z,32
2022-08-05T11:00:20.648Z,32.1
2022-08-05T11:00:24.884Z,32.3
2022-08-05T11:01:17.194Z,32.3
2022-08-05T11:02:43.590Z,31.9
2022-08-05T11:03:30.587Z,32
2022-08-05T11:04:13.355Z,32.1
2022-08-05T11:05:20.121Z,32.3
2022-08-05T11:06:20.152Z,32.5
2022-08-05T11:07:18.336Z,32.5
2022-08-05T11:08:41.507Z,33.1
2022-08-05T11:09:45.729Z,32.9
2022-08-05T11:10:15.958Z,32.9
2022-08-05T11:11:20.915Z,32.6
2022-08-05T11:12:18.873Z,32.6
2022-08-05T11:13:19.948Z,32.7
2022-08-05T11:14:17.421Z,32.7
2022-08-05T11:15:44.011Z,32.7
2022-08-05T11:16:33.667Z,32.4
2022-08-05T11:18:05.995Z,32.8
2022-08-05T11:18:16.419Z,32.8
2022-08-05T11:20:20.782Z,33.3
2022-08-05T11:20:24.427Z,33.1
2022-08-05T11:21:16.334Z,33.1
2022-08-05T11:22:19.555Z,33.3
2022-08-05T11:23:14.709Z,33.1
2022-08-05T11:24:34.363Z,33.1
2022-08-05T11:26:11.174Z,33.1
2022-08-05T11:26:32.267Z,33.1
2022-08-05T11:27:14.077Z,33.1
2022-08-05T11:28:21.466Z,33.3
2022-08-05T11:29:18.620Z,33.2
2022-08-05T11:30:17.447Z,33.4
2022-08-05T11:32:03.327Z,33.4
2022-08-05T11:32:15.054Z,33.5
2022-08-05T11:33:25.421Z,33.2
2022-08-05T11:34:21.245Z,33.1
2022-08-05T11:35:24.250Z,32.9
2022-08-05T11:36:13.431Z,32.3
2022-08-05T11:38:45.594Z,33.1
2022-08-05T11:38:53.236Z,32.7
2022-08-05T11:40:24.720Z,33.3
2022-08-05T11:42:06.585Z,33.3
2022-08-05T11:42:22.557Z,33.4
2022-08-05T11:43:17.885Z,33.8
2022-08-05T11:44:53.550Z,33.9
2022-08-05T11:46:34.876Z,33.9
2022-08-05T11:46:35.396Z,34.1
2022-08-05T11:47:48.366Z,34.2
2022-08-05T11:48:20.887Z,34.2
2022-08-05T11:49:18.867Z,34
2022-08-05T11:50:18.659Z,34.1
2022-08-05T11:51:51.811Z,34.1
2022-08-05T11:52:17.404Z,34.1
2022-08-05T11:53:17.524Z,33.9
2022-08-05T11:54:18.172Z,33.6
2022-08-05T11:55:17.808Z,33.6
2022-08-05T11:56:19.451Z,33.6
2022-08-05T11:57:30.574Z,33.3
2022-08-05T11:58:22.546Z,33.3
2022-08-05T11:59:23.231Z,33.3
2022-08-05T12:00:16.497Z,33.1
2022-08-05T12:01:21.078Z,33.1
2022-08-05T12:02:36.211Z,33.1
2022-08-05T12:03:31.797Z,32.9
2022-08-05T12:04:18.554Z,32.8
2022-08-05T12:05:23.931Z,32.5
2022-08-05T12:06:14.980Z,32.4
2022-08-05T12:07:15.247Z,32.4
2022-08-05T12:08:22.575Z,32.4
2022-08-05T12:09:53.041Z,32.4
2022-08-05T12:10:14.357Z,32.1
2022-08-05T12:11:24.668Z,32.4
2022-08-05T12:12:24.429Z,32.6
2022-08-05T12:13:50.950Z,32.6
2022-08-05T12:14:15.571Z,32.6
2022-08-05T12:15:38.840Z,32.6
2022-08-05T12:16:25.630Z,32.8
2022-08-05T12:18:14.781Z,32.9
2022-08-05T12:18:17.130Z,32.9
2022-08-05T12:20:35.628Z,32.9
2022-08-05T12:20:35.840Z,32.9
2022-08-05T12:21:15.127Z,32.8
2022-08-05T12:22:25.695Z,32.7
2022-08-05T12:23:17.472Z,32.3
2022-08-05T12:24:12.887Z,32.3
2022-08-05T12:25:18.753Z,32.1
2022-08-05T12:26:15.511Z,32.4
2022-08-05T12:27:35.512Z,32.5
2022-08-05T12:28:22.351Z,32.6
2022-08-05T12:29:11.845Z,32.6
2022-08-05T12:30:19.505Z,32.6
2022-08-05T12:31:49.868Z,32.8
2022-08-05T12:32:16.334Z,32.8
2022-08-05T12:33:39.212Z,32.8
2022-08-05T12:34:26.066Z,32.8
2022-08-05T12:35:12.626Z,32.8
2022-08-05T12:36:14.234Z,32.9
2022-08-05T12:37:32.227Z,32.7
2022-08-05T12:38:30.150Z,32.7
2022-08-05T12:39:11.029Z,32.4
2022-08-05T12:40:31.759Z,32.8
2022-08-05T12:41:18.331Z,32.8
2022-08-05T12:42:19.272Z,33.1
2022-08-05T12:43:25.510Z,33.2
2022-08-05T12:44:11.407Z,33.2
2022-08-05T12:45:36.941Z,33.1
2022-08-05T12:46:18.039Z,33.1
2022-08-05T12:47:19.371Z,33.3
2022-08-05T12:48:37.512Z,33.4
2022-08-05T12:49:21.131Z,33.4
2022-08-05T12:50:15.407Z,33.4
2022-08-05T12:52:29.752Z,33.4
2022-08-05T12:52:38.110Z,33.1
2022-08-05T12:53:20.125Z,33.1
2022-08-05T12:54:26.459Z,32.6
2022-08-05T12:55:18.121Z,32.6
2022-08-05T12:56:39.600Z,32.6
2022-08-05T12:57:17.093Z,32.4
2022-08-05T12:59:08.035Z,32.4
2022-08-05T12:59:46.527Z,32.6
2022-08-05T13:02:11.926Z,32.6
2022-08-05T13:02:12.217Z,32.4
2022-08-05T13:03:19.082Z,32.6
2022-08-05T13:04:16.654Z,32.6
2022-08-05T13:05:18.674Z,32.9
2022-08-05T13:06:18.183Z,32.9
2022-08-05T13:08:02.658Z,32.9
2022-08-05T13:08:13.850Z,33
2022-08-05T13:09:30.917Z,32.9
2022-08-05T13:10:21.884Z,32.9
2022-08-05T13:11:13.114Z,32.9
2022-08-05T13:12:20.232Z,33.2
2022-08-05T13:14:07.835Z,33.4
2022-08-05T13:14:24.562Z,33.4
2022-08-05T13:15:35.800Z,33.4
2022-08-05T13:16:17.427Z,33.4
2022-08-05T13:17:15.537Z,33.4
2022-08-05T13:18:12.755Z,33.7
2022-08-05T13:19:18.005Z,33.8
2022-08-05T13:20:29.140Z,33.4
2022-08-05T13:21:14.454Z,33.4
2022-08-05T13:22:31.652Z,33.4
2022-08-05T13:23:12.107Z,33.6
2022-08-05T13:24:15.412Z,33.6
2022-08-05T13:25:59.118Z,33.5
2022-08-05T13:26:15.876Z,33.5
2022-08-05T13:27:38.490Z,33.1
2022-08-05T13:28:16.347Z,33.2
2022-08-05T13:29:40.077Z,33.4
2022-08-05T13:30:41.314Z,33.3
2022-08-05T13:31:18.535Z,33.3
2022-08-05T13:32:30.694Z,33.4
2022-08-05T13:34:26.130Z,33.6
2022-08-05T13:34:30.043Z,33.6